Time;durP1;ratioP1;P1;durP2;ratioP2;P2;SDS_P1;SDS_P2;PMS_P1;PMS_P2;Temp;Humidity;BMP_temperature;BMP_pressure;BME280_temperature;BME280_humidity;BME280_pressure;Samples;Min_cycle;Max_cycle;Signal;HPM_P1;HPM_P2
2023/04/01 00:00:56;;;;;;;6.37;1.40;;;20.20;99.90;;;;;;5073343;28;20191;-70
2023/04/01 00:03:25;;;;;;;1.00;0.80;;;20.20;99.90;;;;;;5073955;28;20176;-68
2023/04/01 00:05:53;;;;;;;1.77;0.90;;;20.10;99.90;;;;;;5073643;28;20222;-69
2023/04/01 00:08:21;;;;;;;6.73;1.33;;;20.10;99.90;;;;;;5073392;28;20172;-68
2023/04/01 00:10:49;;;;;;;4.20;1.40;;;20.10;99.90;;;;;;5073169;28;20179;-68
2023/04/01 00:13:17;;;;;;;3.20;1.30;;;20.50;99.90;;;;;;5073284;28;20263;-68
2023/04/01 00:15:45;;;;;;;3.33;1.47;;;20.50;99.90;;;;;;5109731;28;20268;-68
2023/04/01 00:18:13;;;;;;;6.33;1.60;;;20.50;99.90;;;;;;5113892;28;20203;-68
2023/04/01 00:20:46;;;;;;;6.50;1.30;;;21.00;99.90;;;;;;5113799;28;20171;-68
2023/04/01 00:23:14;;;;;;;8.10;1.17;;;22.90;99.90;;;;;;5114172;28;20621;-69
2023/04/01 00:25:42;;;;;;;1.43;1.00;;;23.70;99.90;;;;;;5113544;28;20296;-70
2023/04/01 00:28:10;;;;;;;5.30;1.60;;;23.70;99.90;;;;;;5114333;28;20166;-70
2023/04/01 00:30:38;;;;;;;5.30;1.30;;;23.20;99.90;;;;;;5113666;28;20186;-70
2023/04/01 00:33:06;;;;;;;1.90;0.97;;;22.70;99.90;;;;;;5113601;28;20174;-70
2023/04/01 00:35:34;;;;;;;5.40;1.13;;;22.40;99.90;;;;;;5113549;28;20264;-70
2023/04/01 00:38:02;;;;;;;3.50;1.00;;;22.10;99.90;;;;;;5113384;28;20178;-70
2023/04/01 00:40:37;;;;;;;7.43;1.40;;;21.80;99.90;;;;;;5113412;28;20182;-68
2023/04/01 00:43:11;;;;;;;2.93;1.07;;;21.70;99.90;;;;;;5113791;28;20188;-70
2023/04/01 00:45:41;;;;;;;1.50;1.00;;;21.30;99.90;;;;;;5113433;28;20206;-70
2023/04/01 00:48:17;;;;;;;3.53;1.30;;;21.20;99.90;;;;;;5113605;28;20209;-71
2023/04/01 00:51:06;;;;;;;1.83;0.80;;;21.40;99.90;;;;;;5112047;28;20182;-70
2023/04/01 00:53:38;;;;;;;9.83;2.53;;;21.40;99.90;;;;;;5113387;28;20175;-70
2023/04/01 00:56:19;;;;;;;14.80;2.17;;;21.10;99.90;;;;;;5114947;28;20169;-70
2023/04/01 00:58:54;;;;;;;88.30;11.97;;;20.80;99.90;;;;;;5117681;28;20651;-70
2023/04/01 01:01:24;;;;;;;3.90;1.73;;;20.60;99.90;;;;;;5117672;28;20166;-71
2023/04/01 01:03:52;;;;;;;2.30;1.17;;;20.60;99.90;;;;;;5117752;28;20208;-71
2023/04/01 01:06:43;;;;;;;6.00;1.30;;;20.50;99.90;;;;;;5117668;28;20581;-70
2023/04/01 01:09:30;;;;;;;4.63;1.53;;;20.40;99.90;;;;;;5117922;28;20257;-71
2023/04/01 01:12:20;;;;;;;5.57;2.07;;;20.20;99.90;;;;;;5117483;27;20178;-71
2023/04/01 01:15:09;;;;;;;6.33;1.80;;;20.20;99.90;;;;;;5117268;28;20229;-71
2023/04/01 01:18:04;;;;;;;12.40;3.60;;;20.40;99.90;;;;;;5117375;28;20188;-70
2023/04/01 01:20:41;;;;;;;12.33;1.83;;;20.70;99.90;;;;;;5117358;27;20173;-72
2023/04/01 01:23:27;;;;;;;4.50;1.43;;;20.70;99.90;;;;;;5117252;28;20307;-71
2023/04/01 01:26:16;;;;;;;6.03;1.17;;;20.60;99.90;;;;;;5117488;28;20218;-71
2023/04/01 01:29:27;;;;;;;6.13;1.53;;;20.50;99.90;;;;;;5117637;28;20196;-70
2023/04/01 01:32:14;;;;;;;3.33;1.20;;;20.60;99.90;;;;;;5096656;28;20197;-72
2023/04/01 01:35:13;;;;;;;2.60;1.20;;;21.00;99.90;;;;;;5117052;28;20177;-71
2023/04/01 01:37:43;;;;;;;4.53;1.40;;;21.00;99.90;;;;;;5117065;28;20545;-72
2023/04/01 01:40:12;;;;;;;2.63;1.20;;;20.90;99.90;;;;;;5116936;28;20186;-71
2023/04/01 01:42:45;;;;;;;2.17;1.30;;;20.40;99.90;;;;;;5117052;28;20261;-71
2023/04/01 01:45:17;;;;;;;5.90;1.13;;;19.80;99.90;;;;;;5116771;28;20692;-72
2023/04/01 01:47:46;;;;;;;7.50;1.40;;;19.60;99.90;;;;;;5116747;28;20710;-71
2023/04/01 01:50:16;;;;;;;4.23;1.50;;;19.50;99.90;;;;;;5116719;28;20182;-71
2023/04/01 01:52:43;;;;;;;5.77;1.40;;;19.60;99.90;;;;;;5116839;28;20177;-70
2023/04/01 01:55:30;;;;;;;6.27;1.20;;;19.20;99.90;;;;;;5116733;28;20260;-70
2023/04/01 01:58:11;;;;;;;6.73;1.70;;;19.00;99.90;;;;;;5116321;27;20178;-68
2023/04/01 02:00:40;;;;;;;9.53;1.73;;;19.10;99.90;;;;;;5105632;28;20217;-73
2023/04/01 02:07:05;;;;;;;5.37;1.60;;;19.50;99.90;;;;;;5105568;28;20218;-69
2023/04/01 02:09:34;;;;;;;4.23;0.90;;;19.50;99.90;;;;;;5107402;28;20179;-71
2023/04/01 02:12:05;;;;;;;4.17;1.47;;;19.50;99.90;;;;;;5102575;28;20174;-71
2023/04/01 02:15:13;;;;;;;7.27;1.30;;;19.50;99.90;;;;;;5118071;28;20229;-71
2023/04/01 02:17:44;;;;;;;3.60;1.27;;;19.70;99.90;;;;;;5105269;28;20239;-71
2023/04/01 02:20:23;;;;;;;4.40;1.20;;;19.80;99.90;;;;;;5115850;28;20174;-70
2023/04/01 02:22:55;;;;;;;5.57;1.87;;;19.90;99.90;;;;;;5114574;28;20537;-71
2023/04/01 02:25:28;;;;;;;4.40;1.00;;;19.40;99.90;;;;;;5115858;28;20218;-71
2023/04/01 02:27:58;;;;;;;5.30;1.47;;;19.20;99.90;;;;;;5114649;28;20721;-71
2023/04/01 02:30:32;;;;;;;2.60;1.00;;;19.20;99.90;;;;;;5115865;28;20629;-71
2023/04/01 02:33:00;;;;;;;7.17;1.73;;;19.20;99.90;;;;;;5116064;28;20710;-71
2023/04/01 02:35:28;;;;;;;6.80;1.53;;;19.40;99.90;;;;;;5115925;28;20188;-71
2023/04/01 02:37:56;;;;;;;3.87;1.13;;;19.60;99.90;;;;;;5115943;28;20173;-72
2023/04/01 02:40:24;;;;;;;7.50;1.43;;;19.60;99.90;;;;;;5115768;28;20186;-71
2023/04/01 02:42:52;;;;;;;3.33;1.27;;;19.70;99.90;;;;;;5114570;28;20697;-72
2023/04/01 02:45:20;;;;;;;8.73;1.50;;;19.80;99.90;;;;;;5114310;28;20768;-70
2023/04/01 02:47:48;;;;;;;3.67;1.20;;;19.90;99.90;;;;;;5115591;28;20170;-72
2023/04/01 02:50:16;;;;;;;4.80;1.20;;;19.90;99.90;;;;;;5115579;28;20263;-70
2023/04/01 02:52:43;;;;;;;6.50;1.30;;;19.70;99.90;;;;;;5115741;28;20257;-72
2023/04/01 02:55:11;;;;;;;4.83;1.40;;;19.60;99.90;;;;;;5115609;28;20543;-71
2023/04/01 02:57:39;;;;;;;5.03;1.33;;;19.50;99.90;;;;;;5115725;28;20577;-71
2023/04/01 03:00:11;;;;;;;3.00;1.27;;;19.50;99.90;;;;;;5115429;28;20546;-68
2023/04/01 03:02:40;;;;;;;6.50;1.40;;;19.50;99.90;;;;;;5113778;28;20200;-70
2023/04/01 03:05:08;;;;;;;7.27;1.30;;;19.40;99.90;;;;;;5105282;28;20248;-69
2023/04/01 03:07:35;;;;;;;4.67;1.30;;;19.40;99.90;;;;;;5103548;28;20262;-72
2023/04/01 03:10:05;;;;;;;6.63;1.70;;;19.40;99.90;;;;;;5104174;28;20208;-70
2023/04/01 03:12:32;;;;;;;5.77;1.27;;;19.40;99.90;;;;;;5103893;28;20182;-71
2023/04/01 03:15:00;;;;;;;6.97;1.63;;;19.40;99.90;;;;;;5103590;28;20219;-70
2023/04/01 03:17:28;;;;;;;5.23;1.97;;;19.30;99.90;;;;;;5106013;28;20259;-70
2023/04/01 03:19:56;;;;;;;6.80;1.20;;;19.30;99.90;;;;;;5102442;28;20181;-71
2023/04/01 03:22:24;;;;;;;6.40;1.50;;;19.20;99.90;;;;;;5103191;28;20186;-69
2023/04/01 03:24:51;;;;;;;3.20;1.43;;;19.10;99.90;;;;;;5106440;28;20209;-72
2023/04/01 03:27:19;;;;;;;5.93;1.80;;;19.10;99.90;;;;;;5114650;28;20185;-69
2023/04/01 03:29:47;;;;;;;4.53;1.27;;;19.00;99.90;;;;;;5114821;27;20175;-71
2023/04/01 03:32:15;;;;;;;4.20;1.50;;;19.10;99.90;;;;;;5114662;28;20190;-68
2023/04/01 03:34:43;;;;;;;5.10;1.60;;;19.00;99.90;;;;;;5114887;28;20547;-72
2023/04/01 03:37:11;;;;;;;5.13;1.60;;;19.10;99.90;;;;;;5114717;28;20177;-72
2023/04/01 03:39:39;;;;;;;3.77;1.37;;;19.20;99.90;;;;;;5114542;28;20210;-71
2023/04/01 03:42:07;;;;;;;5.13;1.40;;;19.30;99.90;;;;;;5108231;28;20265;-72
2023/04/01 03:44:35;;;;;;;5.57;1.53;;;19.20;99.90;;;;;;5098207;28;20755;-71
2023/04/01 03:47:03;;;;;;;2.57;1.40;;;19.20;99.90;;;;;;5096487;28;20243;-69
2023/04/01 03:49:31;;;;;;;4.57;1.57;;;19.00;99.90;;;;;;5094107;28;20178;-70
2023/04/01 03:51:59;;;;;;;2.77;1.53;;;18.90;99.90;;;;;;5094038;28;20262;-71
2023/04/01 03:54:27;;;;;;;8.10;2.30;;;18.80;99.90;;;;;;5089514;28;20280;-66
2023/04/01 03:56:57;;;;;;;5.77;1.97;;;18.70;99.90;;;;;;5092292;28;20270;-66
2023/04/01 03:59:25;;;;;;;7.27;2.00;;;18.80;99.90;;;;;;5092977;28;20179;-67
2023/04/01 04:01:53;;;;;;;7.53;1.70;;;18.70;99.90;;;;;;5102967;28;20187;-68
2023/04/01 04:04:21;;;;;;;6.43;2.20;;;18.60;99.90;;;;;;5101554;28;20202;-70
2023/04/01 04:06:49;;;;;;;4.40;1.50;;;18.60;99.90;;;;;;5101140;28;20560;-72
2023/04/01 04:09:16;;;;;;;6.60;1.53;;;18.70;99.90;;;;;;5093865;28;20177;-73
2023/04/01 04:11:44;;;;;;;4.87;1.70;;;18.60;99.90;;;;;;5092559;28;20259;-74
2023/04/01 04:14:12;;;;;;;5.30;1.83;;;18.70;99.90;;;;;;5092379;28;20277;-68
2023/04/01 04:16:43;;;;;;;5.63;1.53;;;18.70;99.90;;;;;;5092286;28;20208;-68
2023/04/01 04:19:10;;;;;;;3.17;1.50;;;18.90;99.90;;;;;;5092211;28;20183;-69
2023/04/01 04:21:39;;;;;;;5.80;1.40;;;18.90;99.90;;;;;;5092435;28;20643;-72
2023/04/01 04:24:07;;;;;;;9.13;1.77;;;19.00;99.90;;;;;;5092279;28;20175;-70
2023/04/01 04:26:34;;;;;;;5.83;1.73;;;19.00;99.90;;;;;;5092187;28;20195;-69
2023/04/01 04:29:02;;;;;;;9.83;1.87;;;19.10;99.90;;;;;;5091935;28;20184;-71
2023/04/01 04:31:30;;;;;;;8.90;1.57;;;19.10;99.90;;;;;;5097501;28;20176;-70
2023/04/01 04:33:59;;;;;;;8.23;2.23;;;19.00;99.90;;;;;;5101775;28;20232;-67
2023/04/01 04:36:26;;;;;;;3.80;1.73;;;19.00;99.90;;;;;;5103036;28;20179;-67
2023/04/01 04:38:54;;;;;;;4.17;1.70;;;19.00;99.90;;;;;;5101150;28;20170;-67
2023/04/01 04:41:21;;;;;;;5.33;1.47;;;19.10;99.90;;;;;;5101166;28;20173;-67
2023/04/01 04:43:54;;;;;;;6.20;2.47;;;19.10;99.90;;;;;;5098660;28;20194;-66
2023/04/01 04:46:23;;;;;;;4.40;1.53;;;19.10;99.90;;;;;;5093151;28;20313;-68
2023/04/01 04:48:50;;;;;;;7.90;1.67;;;19.10;99.90;;;;;;5091780;28;20179;-66
2023/04/01 04:51:19;;;;;;;4.53;1.70;;;19.20;99.90;;;;;;5091916;28;20175;-67
2023/04/01 04:53:47;;;;;;;6.80;1.73;;;19.10;99.90;;;;;;5091883;28;20217;-67
2023/04/01 04:56:19;;;;;;;6.30;1.47;;;19.20;99.90;;;;;;5091810;28;20171;-67
2023/04/01 04:58:47;;;;;;;4.90;1.63;;;19.20;99.90;;;;;;5090346;28;20182;-66
2023/04/01 05:01:17;;;;;;;4.87;2.07;;;19.20;99.90;;;;;;5091882;28;20540;-67
2023/04/01 05:03:45;;;;;;;6.37;1.83;;;19.20;99.90;;;;;;5091756;28;20205;-67
2023/04/01 05:06:14;;;;;;;3.77;1.60;;;19.40;99.90;;;;;;5091642;28;20254;-65
2023/04/01 05:08:43;;;;;;;3.63;1.67;;;19.60;99.90;;;;;;5091379;28;20184;-68
2023/04/01 05:11:14;;;;;;;5.90;2.07;;;19.70;99.90;;;;;;5091623;28;20183;-69
2023/04/01 05:13:42;;;;;;;5.07;1.97;;;19.90;99.90;;;;;;5089943;28;20277;-66
2023/04/01 05:16:15;;;;;;;6.60;1.80;;;20.10;99.90;;;;;;5091635;28;20187;-66
2023/04/01 05:18:43;;;;;;;7.23;1.90;;;20.20;99.90;;;;;;5091641;28;20187;-66
2023/04/01 05:21:11;;;;;;;5.27;2.03;;;20.20;99.90;;;;;;5091641;28;20183;-66
2023/04/01 05:23:39;;;;;;;6.93;1.70;;;20.20;99.90;;;;;;5091575;28;20544;-68
2023/04/01 05:26:09;;;;;;;4.80;1.80;;;20.10;99.90;;;;;;5091555;28;20304;-67
2023/04/01 05:28:36;;;;;;;4.17;1.87;;;19.90;99.90;;;;;;5091362;28;20558;-68
2023/04/01 05:31:05;;;;;;;3.83;1.80;;;19.80;99.90;;;;;;5091622;28;20695;-67
2023/04/01 05:33:34;;;;;;;4.33;1.80;;;20.00;99.90;;;;;;5091373;28;20586;-67
2023/04/01 05:36:15;;;;;;;5.10;1.63;;;20.10;99.90;;;;;;5091479;28;20177;-68
2023/04/01 05:38:43;;;;;;;4.27;1.53;;;20.00;99.90;;;;;;5091441;28;20190;-66
2023/04/01 05:41:11;;;;;;;6.90;1.80;;;20.00;99.90;;;;;;5091402;28;20596;-68
2023/04/01 05:43:39;;;;;;;8.80;1.73;;;20.10;99.90;;;;;;5094966;28;20242;-66
2023/04/01 05:46:07;;;;;;;5.27;1.60;;;20.10;99.90;;;;;;5095033;28;20209;-66
2023/04/01 05:48:35;;;;;;;5.60;1.63;;;20.10;99.90;;;;;;5094906;28;20172;-67
2023/04/01 05:51:03;;;;;;;12.23;2.00;;;20.20;99.90;;;;;;5095008;28;20175;-66
2023/04/01 05:53:31;;;;;;;5.77;1.60;;;20.30;99.90;;;;;;5095216;28;20232;-66
2023/04/01 05:56:02;;;;;;;5.93;2.50;;;20.40;99.90;;;;;;5094905;28;20177;-66
2023/04/01 05:58:30;;;;;;;6.27;1.87;;;20.30;99.90;;;;;;5095074;28;20233;-67
2023/04/01 06:01:09;;;;;;;5.40;1.73;;;20.30;99.90;;;;;;5094858;28;20587;-66
2023/04/01 06:03:37;;;;;;;10.47;2.20;;;20.30;99.90;;;;;;5095018;28;20617;-65
2023/04/01 06:06:08;;;;;;;6.60;1.87;;;20.50;99.90;;;;;;5094643;28;20215;-66
2023/04/01 06:08:35;;;;;;;8.37;1.73;;;20.80;99.90;;;;;;5094887;28;20163;-67
2023/04/01 06:11:21;;;;;;;4.37;1.60;;;20.80;99.90;;;;;;5094778;28;20645;-66
2023/04/01 06:13:51;;;;;;;4.13;1.83;;;21.00;99.90;;;;;;5094561;28;20172;-66
2023/04/01 06:16:21;;;;;;;8.20;2.07;;;21.20;99.90;;;;;;5094750;28;20186;-68
2023/04/01 06:19:12;;;;;;;7.47;1.60;;;21.00;99.90;;;;;;5094737;28;20208;-66
2023/04/01 06:21:56;;;;;;;5.37;1.90;;;20.90;99.90;;;;;;5086309;28;20561;-66
2023/04/01 06:24:52;;;;;;;9.93;2.10;;;20.60;99.90;;;;;;5094544;28;20183;-65
2023/04/01 06:27:37;;;;;;;6.73;2.10;;;20.40;99.90;;;;;;5089070;28;20196;-66
2023/04/01 06:30:34;;;;;;;5.23;1.57;;;20.20;99.90;;;;;;5094378;28;20566;-66
2023/04/01 06:33:08;;;;;;;4.77;1.90;;;19.90;99.90;;;;;;5094492;28;20179;-66
2023/04/01 06:35:53;;;;;;;5.27;1.77;;;19.80;99.90;;;;;;5094388;28;20169;-66
2023/04/01 06:38:39;;;;;;;5.03;1.47;;;19.90;99.90;;;;;;5094436;28;20260;-65
2023/04/01 06:41:29;;;;;;;6.40;1.80;;;19.80;99.90;;;;;;5094246;28;20658;-66
2023/04/01 06:44:19;;;;;;;2.23;1.20;;;19.70;99.90;;;;;;5094184;28;20226;-67
2023/04/01 06:47:04;;;;;;;8.40;1.67;;;19.70;99.90;;;;;;5094178;28;20232;-67
2023/04/01 06:49:36;;;;;;;7.53;1.67;;;19.50;99.90;;;;;;5101681;28;20181;-66
2023/04/01 06:52:40;;;;;;;6.17;1.63;;;19.50;99.90;;;;;;5114075;27;20173;-69
2023/04/01 06:55:37;;;;;;;12.03;1.57;;;19.50;99.90;;;;;;5113466;28;20186;-67
2023/04/01 06:58:14;;;;;;;8.70;1.80;;;19.50;99.90;;;;;;5108370;28;20237;-66
2023/04/01 07:00:46;;;;;;;5.23;1.43;;;19.50;99.90;;;;;;5114317;28;20170;-67
2023/04/01 07:03:13;;;;;;;5.13;1.50;;;19.50;99.90;;;;;;5114299;28;20179;-66
2023/04/01 07:05:41;;;;;;;9.00;1.40;;;19.40;99.90;;;;;;5114167;28;20211;-66
2023/04/01 07:08:18;;;;;;;6.87;1.77;;;19.30;99.90;;;;;;5113434;28;20182;-72
2023/04/01 07:11:02;;;;;;;6.27;1.57;;;19.30;99.90;;;;;;5114195;28;20245;-72
2023/04/01 07:13:55;;;;;;;5.37;1.20;;;19.20;99.90;;;;;;5113974;28;20641;-72
2023/04/01 07:16:43;;;;;;;5.07;1.50;;;19.20;99.90;;;;;;5103126;28;20211;-66
2023/04/01 07:19:19;;;;;;;8.30;2.23;;;19.10;99.90;;;;;;5108217;28;20546;-67
2023/04/01 07:21:55;;;;;;;7.53;1.83;;;19.00;99.90;;;;;;5112498;28;20652;-73
2023/04/01 07:24:32;;;;;;;5.80;3.90;;;19.00;99.90;;;;;;5113750;28;20485;-70
2023/04/01 07:27:00;;;;;;;9.27;3.20;;;19.00;99.90;;;;;;5113624;28;20578;-75
2023/04/01 07:29:28;;;;;;;4.00;2.50;;;19.00;99.90;;;;;;5113882;28;20177;-71
2023/04/01 07:32:13;;;;;;;5.80;2.73;;;18.90;99.90;;;;;;5113519;28;20178;-73
2023/04/01 07:34:55;;;;;;;7.63;2.57;;;19.00;99.90;;;;;;5113674;28;20228;-71
2023/04/01 07:37:42;;;;;;;7.40;2.70;;;18.90;99.90;;;;;;5113654;28;20183;-74
2023/04/01 07:40:23;;;;;;;4.73;2.00;;;18.80;99.90;;;;;;5113466;28;20166;-73
2023/04/01 07:42:57;;;;;;;5.10;1.63;;;18.80;99.90;;;;;;5113447;28;20189;-75
2023/04/01 07:45:46;;;;;;;5.03;2.30;;;18.80;99.90;;;;;;5113247;27;20270;-73
2023/04/01 07:48:39;;;;;;;6.43;1.40;;;18.80;99.90;;;;;;5112965;28;20539;-66
2023/04/01 07:51:14;;;;;;;6.77;2.17;;;18.70;99.90;;;;;;5113358;28;20660;-65
2023/04/01 07:53:52;;;;;;;9.87;5.80;;;18.80;99.90;;;;;;5112008;28;20173;-66
2023/04/01 07:56:56;;;;;;;10.13;5.63;;;18.70;99.90;;;;;;5113220;28;20222;-72
2023/04/01 07:59:57;;;;;;;12.17;2.70;;;18.70;99.90;;;;;;5112994;28;20204;-72
2023/04/01 08:03:00;;;;;;;6.97;3.00;;;18.60;99.90;;;;;;5112917;28;20257;-68
2023/04/01 08:05:37;;;;;;;6.57;2.33;;;18.60;99.90;;;;;;5114288;28;20538;-67
2023/04/01 08:08:37;;;;;;;10.43;2.87;;;18.60;99.90;;;;;;5114186;28;20289;-65
2023/04/01 08:11:17;;;;;;;5.90;1.80;;;18.60;99.90;;;;;;5114146;28;20182;-66
2023/04/01 08:13:49;;;;;;;8.23;2.10;;;18.60;99.90;;;;;;5112997;28;20180;-69
2023/04/01 08:16:28;;;;;;;5.60;2.50;;;18.60;99.90;;;;;;5113507;28;20180;-66
2023/04/01 08:19:09;;;;;;;5.40;2.00;;;18.60;99.90;;;;;;5113422;28;20177;-66
2023/04/01 08:21:44;;;;;;;4.47;1.43;;;18.60;99.90;;;;;;5113949;28;20174;-65
2023/04/01 08:24:45;;;;;;;5.93;1.77;;;18.60;99.90;;;;;;5113752;28;20223;-67
2023/04/01 08:27:19;;;;;;;5.97;1.70;;;18.60;99.90;;;;;;5113349;28;20181;-66
2023/04/01 08:30:04;;;;;;;4.40;1.50;;;18.60;99.90;;;;;;5109199;28;20212;-65
2023/04/01 08:32:40;;;;;;;6.23;2.00;;;18.60;99.90;;;;;;5092746;28;20179;-66
2023/04/01 08:35:25;;;;;;;7.90;1.90;;;18.60;99.90;;;;;;5092940;28;20299;-67
2023/04/01 08:37:55;;;;;;;9.73;2.47;;;18.60;99.90;;;;;;5105161;28;20193;-67
2023/04/01 08:40:57;;;;;;;4.83;1.90;;;18.60;99.90;;;;;;5113463;28;20171;-66
2023/04/01 08:43:53;;;;;;;6.37;1.83;;;18.60;99.90;;;;;;5040480;28;20706;-67
2023/04/01 08:46:36;;;;;;;4.73;1.50;;;18.60;99.90;;;;;;5061184;28;20595;-66
2023/04/01 08:49:09;;;;;;;5.10;1.57;;;18.50;99.90;;;;;;5097766;28;20219;-67
2023/04/01 08:51:49;;;;;;;3.70;1.47;;;18.50;99.90;;;;;;5092965;28;20252;-67
2023/04/01 08:54:29;;;;;;;5.73;1.53;;;18.50;99.90;;;;;;5092783;28;20199;-66
2023/04/01 08:57:14;;;;;;;6.23;1.40;;;18.50;99.90;;;;;;5092255;28;20177;-67
2023/04/01 09:00:10;;;;;;;5.63;1.90;;;18.50;99.90;;;;;;5092794;28;20175;-66
2023/04/01 09:02:52;;;;;;;6.33;1.70;;;18.50;99.90;;;;;;5109011;28;20587;-66
2023/04/01 09:05:32;;;;;;;5.87;1.70;;;18.50;99.90;;;;;;5111545;28;20211;-67
2023/04/01 09:08:08;;;;;;;5.43;1.97;;;18.50;99.90;;;;;;5112618;28;20571;-67
2023/04/01 09:10:50;;;;;;;7.97;2.03;;;18.40;99.90;;;;;;5112574;28;20177;-67
2023/04/01 09:13:44;;;;;;;2.80;1.53;;;18.40;99.90;;;;;;5113041;28;20224;-66
2023/04/01 09:16:23;;;;;;;5.47;1.90;;;18.40;99.90;;;;;;5113075;28;20183;-66
2023/04/01 09:19:00;;;;;;;7.37;2.00;;;18.40;99.90;;;;;;5117233;28;20643;-66
2023/04/01 09:21:44;;;;;;;6.77;1.73;;;18.40;99.90;;;;;;5116958;28;20670;-67
2023/04/01 09:24:15;;;;;;;8.07;1.93;;;18.30;99.90;;;;;;5116816;28;20637;-67
2023/04/01 09:27:05;;;;;;;6.83;2.20;;;18.40;99.90;;;;;;5116699;28;20228;-67
2023/04/01 09:29:50;;;;;;;6.30;1.70;;;18.30;99.90;;;;;;5106284;28;20210;-66
2023/04/01 09:32:28;;;;;;;4.70;1.90;;;18.30;99.90;;;;;;5116873;28;20174;-67
2023/04/01 09:35:07;;;;;;;12.47;2.03;;;18.40;99.90;;;;;;5116758;28;20166;-66
2023/04/01 09:37:49;;;;;;;12.17;2.07;;;18.30;99.90;;;;;;5116791;28;20195;-67
2023/04/01 09:40:19;;;;;;;6.37;1.93;;;18.30;99.90;;;;;;5116742;28;20637;-67
2023/04/01 09:42:56;;;;;;;4.67;1.53;;;18.30;99.90;;;;;;5116603;28;20174;-66
2023/04/01 09:45:42;;;;;;;6.13;2.13;;;18.30;99.90;;;;;;5116277;28;20202;-67
2023/04/01 09:48:42;;;;;;;10.13;2.67;;;18.30;99.90;;;;;;5116414;28;20162;-68
2023/04/01 09:51:34;;;;;;;6.53;1.70;;;18.20;99.90;;;;;;5116414;28;20606;-67
2023/04/01 09:54:04;;;;;;;6.90;2.63;;;18.20;99.90;;;;;;5116261;28;20210;-67
2023/04/01 09:57:08;;;;;;;10.30;4.03;;;18.20;99.90;;;;;;5116369;27;20167;-66
2023/04/01 09:59:41;;;;;;;10.23;4.10;;;18.20;99.90;;;;;;5115800;28;20167;-67
2023/04/01 10:02:26;;;;;;;9.77;3.30;;;18.20;99.90;;;;;;5116011;28;20707;-66
2023/04/01 10:05:22;;;;;;;5.97;2.13;;;18.20;99.90;;;;;;5115983;28;20202;-66
2023/04/01 10:08:13;;;;;;;2.97;1.63;;;18.20;99.90;;;;;;5114175;28;20587;-68
2023/04/01 10:10:59;;;;;;;8.43;1.90;;;18.10;99.90;;;;;;5115959;28;20174;-66
2023/04/01 10:13:56;;;;;;;5.50;1.77;;;18.10;99.90;;;;;;5115221;28;20196;-66
2023/04/01 10:16:26;;;;;;;4.83;1.60;;;18.10;99.90;;;;;;5043823;28;20288;-67
2023/04/01 10:19:23;;;;;;;4.70;1.57;;;18.00;99.90;;;;;;5115585;28;20170;-67
2023/04/01 10:21:57;;;;;;;6.67;1.40;;;18.00;99.90;;;;;;5115401;28;20181;-67
2023/04/01 10:24:46;;;;;;;4.60;1.53;;;18.00;99.90;;;;;;5115828;28;20187;-66
2023/04/01 10:27:40;;;;;;;5.30;1.47;;;18.00;99.90;;;;;;5115538;28;20182;-67
2023/04/01 10:30:43;;;;;;;4.03;1.10;;;18.10;99.90;;;;;;5115273;28;20227;-66
2023/04/01 10:33:50;;;;;;;7.03;1.50;;;18.00;99.90;;;;;;5115413;28;20534;-66
2023/04/01 10:36:51;;;;;;;3.13;1.30;;;18.00;99.90;;;;;;5115437;27;20167;-67
2023/04/01 10:39:34;;;;;;;1.23;1.03;;;18.00;99.90;;;;;;5115173;28;20180;-66
2023/04/01 10:42:29;;;;;;;5.47;1.40;;;18.00;99.90;;;;;;5104253;28;20171;-68
2023/04/01 10:45:23;;;;;;;5.80;1.10;;;18.00;99.90;;;;;;5094758;28;20817;-66
2023/04/01 10:48:24;;;;;;;6.50;1.57;;;18.00;99.90;;;;;;5112688;28;20179;-67
2023/04/01 10:51:18;;;;;;;7.33;1.50;;;18.00;99.90;;;;;;5112909;28;20188;-68
2023/04/01 10:54:15;;;;;;;8.70;1.53;;;18.00;99.90;;;;;;5113443;28;20182;-67
2023/04/01 10:56:45;;;;;;;3.17;1.40;;;18.00;99.90;;;;;;5114590;27;20228;-66
2023/04/01 10:59:25;;;;;;;5.13;1.40;;;17.90;99.90;;;;;;5114617;28;20189;-66
2023/04/01 11:02:16;;;;;;;2.40;1.20;;;17.90;99.90;;;;;;5108155;28;20189;-67
2023/04/01 11:05:15;;;;;;;6.47;1.27;;;17.90;99.90;;;;;;5094677;28;20217;-67
2023/04/01 11:08:21;;;;;;;2.20;1.00;;;17.90;99.90;;;;;;5093117;28;20192;-66
2023/04/01 11:10:54;;;;;;;1.47;1.10;;;17.80;99.90;;;;;;5030999;28;20228;-66
2023/04/01 11:13:51;;;;;;;3.27;1.33;;;17.80;99.90;;;;;;5094432;28;20536;-67
2023/04/01 11:16:25;;;;;;;5.53;1.57;;;17.80;99.90;;;;;;5102785;28;20195;-66
2023/04/01 11:19:18;;;;;;;2.47;1.20;;;17.80;99.90;;;;;;5099673;28;20285;-65
2023/04/01 11:21:54;;;;;;;2.87;1.40;;;17.70;99.90;;;;;;5093969;28;20202;-65
2023/04/01 11:24:42;;;;;;;3.73;1.40;;;17.70;99.90;;;;;;5094228;28;20175;-65
2023/04/01 11:27:45;;;;;;;5.00;1.97;;;17.60;99.90;;;;;;5093907;28;20183;-65
2023/04/01 11:30:27;;;;;;;7.33;1.50;;;17.60;99.90;;;;;;5093838;28;20211;-65
2023/04/01 11:33:15;;;;;;;3.17;1.40;;;17.60;99.90;;;;;;5112534;28;20645;-65
2023/04/01 11:36:08;;;;;;;5.30;1.40;;;17.50;99.90;;;;;;5112491;28;20183;-65
2023/04/01 11:39:02;;;;;;;7.27;1.50;;;17.50;99.90;;;;;;5094085;28;20172;-65
2023/04/01 11:41:46;;;;;;;3.30;1.23;;;17.40;99.90;;;;;;5093313;28;20186;-66
2023/04/01 11:44:30;;;;;;;3.43;1.40;;;17.40;99.90;;;;;;5093904;28;20186;-65
2023/04/01 11:47:13;;;;;;;6.57;1.37;;;17.30;99.90;;;;;;5093498;28;20195;-66
2023/04/01 11:50:07;;;;;;;5.43;1.20;;;17.30;99.90;;;;;;5093693;28;20186;-66
2023/04/01 11:53:05;;;;;;;5.53;1.43;;;17.20;99.90;;;;;;5092368;28;20262;-65
2023/04/01 11:56:02;;;;;;;2.80;1.40;;;17.20;99.90;;;;;;5093434;28;20571;-65
2023/04/01 11:58:36;;;;;;;4.93;1.53;;;17.10;99.90;;;;;;5093728;28;20179;-65
2023/04/01 12:01:09;;;;;;;5.03;1.40;;;17.00;99.90;;;;;;5093677;28;20255;-65
2023/04/01 12:04:11;;;;;;;3.07;1.37;;;17.00;99.90;;;;;;5092974;28;20693;-65
2023/04/01 12:07:19;;;;;;;6.17;1.80;;;16.90;99.90;;;;;;5093236;28;20225;-65
2023/04/01 12:09:50;;;;;;;3.57;1.60;;;16.90;99.90;;;;;;5060440;28;20735;-65
2023/04/01 12:12:50;;;;;;;4.33;1.60;;;16.80;99.90;;;;;;5096796;28;20253;-65
2023/04/01 12:15:38;;;;;;;3.67;1.83;;;16.70;99.90;;;;;;5108900;28;20320;-65
2023/04/01 12:18:14;;;;;;;9.37;1.70;;;16.70;99.90;;;;;;5093092;28;20179;-65
2023/04/01 12:20:55;;;;;;;4.37;1.93;;;16.70;99.90;;;;;;5094019;28;20173;-65
2023/04/01 12:23:47;;;;;;;5.00;2.00;;;16.60;99.90;;;;;;5113325;28;20174;-65
2023/04/01 12:26:41;;;;;;;4.57;1.80;;;16.60;99.90;;;;;;5113358;28;20708;-65
2023/04/01 12:29:23;;;;;;;2.47;1.30;;;16.50;99.90;;;;;;5095228;28;20176;-65
2023/04/01 12:32:10;;;;;;;4.03;1.30;;;16.50;99.90;;;;;;5093049;28;20189;-65
2023/04/01 12:34:57;;;;;;;5.27;1.77;;;16.40;99.90;;;;;;5092889;28;20216;-65
2023/04/01 12:37:47;;;;;;;5.90;1.50;;;16.40;99.90;;;;;;5092606;28;20186;-66
2023/04/01 12:40:41;;;;;;;9.93;1.33;;;16.40;99.90;;;;;;5093121;28;20175;-64
2023/04/01 12:43:33;;;;;;;6.23;1.47;;;16.30;99.90;;;;;;5092968;28;20183;-65
2023/04/01 12:46:05;;;;;;;5.07;1.60;;;16.30;99.90;;;;;;5092313;28;20215;-65
2023/04/01 12:49:12;;;;;;;4.77;1.70;;;16.30;99.90;;;;;;5093011;28;20182;-65
2023/04/01 12:52:23;;;;;;;3.60;1.27;;;16.30;99.90;;;;;;5091676;28;20712;-65
2023/04/01 12:55:17;;;;;;;4.07;1.70;;;16.30;99.90;;;;;;5090438;28;20244;-65
2023/04/01 12:58:05;;;;;;;3.70;1.50;;;16.20;99.90;;;;;;5061076;28;20191;-65
2023/04/01 13:00:56;;;;;;;3.50;1.57;;;16.30;99.90;;;;;;5096874;28;20207;-65
2023/04/01 13:03:44;;;;;;;6.77;2.00;;;16.20;99.90;;;;;;5097798;28;20205;-65
2023/04/01 13:06:40;;;;;;;6.90;1.53;;;16.20;99.90;;;;;;5096603;28;20214;-65
2023/04/01 13:09:17;;;;;;;3.33;1.50;;;16.20;99.90;;;;;;5064680;28;20202;-66
2023/04/01 13:12:13;;;;;;;3.93;1.30;;;16.20;99.90;;;;;;5110487;28;20208;-65
2023/04/01 13:14:52;;;;;;;6.10;1.50;;;16.10;99.90;;;;;;5111855;28;20217;-65
2023/04/01 13:17:31;;;;;;;4.67;1.47;;;16.00;99.90;;;;;;5112615;28;20186;-66
2023/04/01 13:20:29;;;;;;;1.83;1.30;;;16.00;99.90;;;;;;5101162;28;20236;-65
2023/04/01 13:23:26;;;;;;;3.63;1.60;;;16.00;99.90;;;;;;5092586;28;20183;-67
2023/04/01 13:26:06;;;;;;;5.70;1.40;;;16.00;99.90;;;;;;5083398;28;20312;-66
2023/04/01 13:28:53;;;;;;;2.50;1.30;;;15.90;99.90;;;;;;5090953;28;20171;-66
2023/04/01 13:31:46;;;;;;;3.23;1.30;;;15.80;99.90;;;;;;5092464;28;20171;-66
2023/04/01 13:34:24;;;;;;;1.87;1.30;;;15.80;99.90;;;;;;5092579;28;20171;-66
2023/04/01 13:37:15;;;;;;;3.80;1.33;;;15.70;99.90;;;;;;5095208;28;20661;-66
2023/04/01 13:40:02;;;;;;;6.33;1.43;;;15.70;99.90;;;;;;5110115;28;20214;-66
2023/04/01 13:42:40;;;;;;;4.67;1.40;;;15.70;99.90;;;;;;5112153;28;20182;-66
2023/04/01 13:45:21;;;;;;;8.43;1.80;;;15.70;99.90;;;;;;5111845;28;20205;-66
2023/04/01 13:48:07;;;;;;;5.07;1.47;;;15.70;99.90;;;;;;5108515;28;20201;-66
2023/04/01 13:50:46;;;;;;;3.90;1.23;;;15.70;99.90;;;;;;5092544;28;20650;-66